sensor_id;sensor_type;location;lat;lon;timestamp;temperature;humidity
5011;DHT22;2524;54.364;10.072;2023-03-01T00:02:19;4.00;99.90
5011;DHT22;2524;54.364;10.072;2023-03-01T00:04:44;4.00;99.90
5011;DHT22;2524;54.364;10.072;2023-03-01T00:07:10;4.00;99.90
5011;DHT22;2524;54.364;10.072;2023-03-01T00:09:36;4.00;99.90
5011;DHT22;2524;54.364;10.072;2023-03-01T00:12:03;3.90;99.90
5011;DHT22;2524;54.364;10.072;2023-03-01T00:14:28;3.90;99.90
5011;DHT22;2524;54.364;10.072;2023-03-01T00:16:54;3.90;99.90
5011;DHT22;2524;54.364;10.072;2023-03-01T00:19:20;3.90;99.90
5011;DHT22;2524;54.364;10.072;2023-03-01T00:21:47;3.90;99.90
5011;DHT22;2524;54.364;10.072;2023-03-01T00:24:14;3.90;99.90
5011;DHT22;2524;54.364;10.072;2023-03-01T00:26:40;3.80;99.90
5011;DHT22;2524;54.364;10.072;2023-03-01T00:29:05;3.80;99.90
5011;DHT22;2524;54.364;10.072;2023-03-01T00:31:32;3.80;99.90
5011;DHT22;2524;54.364;10.072;2023-03-01T00:34:03;3.80;99.90
5011;DHT22;2524;54.364;10.072;2023-03-01T00:36:31;3.80;99.90
5011;DHT22;2524;54.364;10.072;2023-03-01T00:38:57;3.80;99.90
5011;DHT22;2524;54.364;10.072;2023-03-01T00:41:23;3.80;99.90
5011;DHT22;2524;54.364;10.072;2023-03-01T00:43:52;3.70;99.90
5011;DHT22;2524;54.364;10.072;2023-03-01T00:46:20;3.70;99.90
5011;DHT22;2524;54.364;10.072;2023-03-01T00:48:46;3.60;99.90
5011;DHT22;2524;54.364;10.072;2023-03-01T00:51:15;3.60;99.90
5011;DHT22;2524;54.364;10.072;2023-03-01T00:53:42;3.60;99.90
5011;DHT22;2524;54.364;10.072;2023-03-01T00:56:09;3.70;99.90
5011;DHT22;2524;54.364;10.072;2023-03-01T00:58:36;3.60;99.90
5011;DHT22;2524;54.364;10.072;2023-03-01T01:01:08;3.60;99.90
5011;DHT22;2524;54.364;10.072;2023-03-01T01:03:46;3.60;99.90
5011;DHT22;2524;54.364;10.072;2023-03-01T01:06:34;3.60;99.90
5011;DHT22;2524;54.364;10.072;2023-03-01T01:09:01;3.60;99.90
5011;DHT22;2524;54.364;10.072;2023-03-01T01:11:29;3.60;99.90
5011;DHT22;2524;54.364;10.072;2023-03-01T01:13:56;3.60;99.90
5011;DHT22;2524;54.364;10.072;2023-03-01T01:16:23;3.60;99.90
5011;DHT22;2524;54.364;10.072;2023-03-01T01:18:49;3.60;99.90
5011;DHT22;2524;54.364;10.072;2023-03-01T01:21:17;3.60;99.90
5011;DHT22;2524;54.364;10.072;2023-03-01T01:23:44;3.60;99.90
5011;DHT22;2524;54.364;10.072;2023-03-01T01:26:14;3.60;99.90
5011;DHT22;2524;54.364;10.072;2023-03-01T01:28:40;3.50;99.90
5011;DHT22;2524;54.364;10.072;2023-03-01T01:31:06;3.50;99.90
5011;DHT22;2524;54.364;10.072;2023-03-01T01:33:32;3.50;99.90
5011;DHT22;2524;54.364;10.072;2023-03-01T01:35:58;3.50;99.90
5011;DHT22;2524;54.364;10.072;2023-03-01T01:38:24;3.50;99.90
5011;DHT22;2524;54.364;10.072;2023-03-01T01:40:50;3.40;99.90
5011;DHT22;2524;54.364;10.072;2023-03-01T01:45:47;3.40;99.90
5011;DHT22;2524;54.364;10.072;2023-03-01T01:48:18;3.30;99.90
5011;DHT22;2524;54.364;10.072;2023-03-01T01:50:54;3.30;99.90
5011;DHT22;2524;54.364;10.072;2023-03-01T01:53:21;3.30;99.90
5011;DHT22;2524;54.364;10.072;2023-03-01T01:55:51;3.20;99.90
5011;DHT22;2524;54.364;10.072;2023-03-01T01:58:20;3.10;99.90
5011;DHT22;2524;54.364;10.072;2023-03-01T02:00:48;3.10;99.90
5011;DHT22;2524;54.364;10.072;2023-03-01T02:03:18;3.00;99.90
5011;DHT22;2524;54.364;10.072;2023-03-01T02:08:19;2.90;99.90
5011;DHT22;2524;54.364;10.072;2023-03-01T02:10:45;2.80;99.90
5011;DHT22;2524;54.364;10.072;2023-03-01T02:13:12;2.80;99.90
5011;DHT22;2524;54.364;10.072;2023-03-01T02:15:39;2.80;99.90
5011;DHT22;2524;54.364;10.072;2023-03-01T02:18:07;2.70;99.90
5011;DHT22;2524;54.364;10.072;2023-03-01T02:23:08;2.70;99.90
5011;DHT22;2524;54.364;10.072;2023-03-01T02:30:43;2.80;99.90
5011;DHT22;2524;54.364;10.072;2023-03-01T02:33:29;2.80;99.90
5011;DHT22;2524;54.364;10.072;2023-03-01T02:36:00;2.80;99.90
5011;DHT22;2524;54.364;10.072;2023-03-01T02:38:27;2.80;99.90
5011;DHT22;2524;54.364;10.072;2023-03-01T02:40:54;2.80;99.90
5011;DHT22;2524;54.364;10.072;2023-03-01T02:43:23;2.80;99.90
5011;DHT22;2524;54.364;10.072;2023-03-01T02:45:51;2.90;99.90
5011;DHT22;2524;54.364;10.072;2023-03-01T02:48:19;2.90;99.90
5011;DHT22;2524;54.364;10.072;2023-03-01T02:51:03;2.90;99.90
5011;DHT22;2524;54.364;10.072;2023-03-01T02:53:58;2.90;99.90
5011;DHT22;2524;54.364;10.072;2023-03-01T02:56:27;2.90;99.90
5011;DHT22;2524;54.364;10.072;2023-03-01T02:58:53;2.90;99.90
5011;DHT22;2524;54.364;10.072;2023-03-01T03:01:19;2.90;99.90
5011;DHT22;2524;54.364;10.072;2023-03-01T03:03:45;2.80;99.90
5011;DHT22;2524;54.364;10.072;2023-03-01T03:06:11;2.80;99.90
5011;DHT22;2524;54.364;10.072;2023-03-01T03:08:37;2.70;99.90
5011;DHT22;2524;54.364;10.072;2023-03-01T03:11:02;2.70;99.90
5011;DHT22;2524;54.364;10.072;2023-03-01T03:13:28;2.70;99.90
5011;DHT22;2524;54.364;10.072;2023-03-01T03:15:55;2.70;99.90
5011;DHT22;2524;54.364;10.072;2023-03-01T03:18:22;2.70;99.90
5011;DHT22;2524;54.364;10.072;2023-03-01T03:20:48;2.70;99.90
5011;DHT22;2524;54.364;10.072;2023-03-01T03:23:19;2.60;99.90
5011;DHT22;2524;54.364;10.072;2023-03-01T03:25:47;2.60;99.90
5011;DHT22;2524;54.364;10.072;2023-03-01T03:28:13;2.60;99.90
5011;DHT22;2524;54.364;10.072;2023-03-01T03:30:40;2.60;99.90
5011;DHT22;2524;54.364;10.072;2023-03-01T03:33:06;2.60;99.90
5011;DHT22;2524;54.364;10.072;2023-03-01T03:35:38;2.50;99.90
5011;DHT22;2524;54.364;10.072;2023-03-01T03:38:06;2.50;99.90
5011;DHT22;2524;54.364;10.072;2023-03-01T03:40:39;2.50;99.90
5011;DHT22;2524;54.364;10.072;2023-03-01T03:43:08;2.50;99.90
5011;DHT22;2524;54.364;10.072;2023-03-01T03:45:34;2.50;99.90
5011;DHT22;2524;54.364;10.072;2023-03-01T03:48:01;2.50;99.90
5011;DHT22;2524;54.364;10.072;2023-03-01T03:50:26;2.50;99.90
5011;DHT22;2524;54.364;10.072;2023-03-01T03:52:52;2.50;99.90
5011;DHT22;2524;54.364;10.072;2023-03-01T03:55:18;2.50;99.90
5011;DHT22;2524;54.364;10.072;2023-03-01T03:57:46;2.50;99.90
5011;DHT22;2524;54.364;10.072;2023-03-01T04:00:21;2.50;99.90
5011;DHT22;2524;54.364;10.072;2023-03-01T04:02:48;2.50;99.90
5011;DHT22;2524;54.364;10.072;2023-03-01T04:05:16;2.50;99.90
5011;DHT22;2524;54.364;10.072;2023-03-01T04:07:42;2.50;99.90
5011;DHT22;2524;54.364;10.072;2023-03-01T04:10:14;2.50;99.90
5011;DHT22;2524;54.364;10.072;2023-03-01T04:12:40;2.40;99.90
5011;DHT22;2524;54.364;10.072;2023-03-01T04:15:10;2.40;99.90
5011;DHT22;2524;54.364;10.072;2023-03-01T04:17:47;2.30;99.90
5011;DHT22;2524;54.364;10.072;2023-03-01T04:20:15;2.30;99.90
5011;DHT22;2524;54.364;10.072;2023-03-01T04:22:51;2.30;99.90
5011;DHT22;2524;54.364;10.072;2023-03-01T04:25:17;2.30;99.90
5011;DHT22;2524;54.364;10.072;2023-03-01T04:27:42;2.30;99.90
5011;DHT22;2524;54.364;10.072;2023-03-01T04:30:09;2.30;99.90
5011;DHT22;2524;54.364;10.072;2023-03-01T04:32:35;2.30;99.90
5011;DHT22;2524;54.364;10.072;2023-03-01T04:35:00;2.40;99.90
5011;DHT22;2524;54.364;10.072;2023-03-01T04:37:26;2.30;99.90
5011;DHT22;2524;54.364;10.072;2023-03-01T04:39:52;2.30;99.90
5011;DHT22;2524;54.364;10.072;2023-03-01T04:42:18;2.30;99.90
5011;DHT22;2524;54.364;10.072;2023-03-01T04:44:44;2.30;99.90
5011;DHT22;2524;54.364;10.072;2023-03-01T04:47:10;2.30;99.90
5011;DHT22;2524;54.364;10.072;2023-03-01T04:49:35;2.30;99.90
5011;DHT22;2524;54.364;10.072;2023-03-01T04:52:01;2.20;99.90
5011;DHT22;2524;54.364;10.072;2023-03-01T04:54:28;2.30;99.90
5011;DHT22;2524;54.364;10.072;2023-03-01T04:56:54;2.20;99.90
5011;DHT22;2524;54.364;10.072;2023-03-01T04:59:20;2.20;99.90
5011;DHT22;2524;54.364;10.072;2023-03-01T05:01:48;2.20;99.90
5011;DHT22;2524;54.364;10.072;2023-03-01T05:04:14;2.20;99.90
5011;DHT22;2524;54.364;10.072;2023-03-01T05:06:40;2.20;99.90
5011;DHT22;2524;54.364;10.072;2023-03-01T05:09:06;2.20;99.90
5011;DHT22;2524;54.364;10.072;2023-03-01T05:11:31;2.10;99.90
5011;DHT22;2524;54.364;10.072;2023-03-01T05:14:08;2.10;99.90
5011;DHT22;2524;54.364;10.072;2023-03-01T05:16:35;2.10;99.90
5011;DHT22;2524;54.364;10.072;2023-03-01T05:19:01;2.00;99.90
5011;DHT22;2524;54.364;10.072;2023-03-01T05:21:39;2.00;99.90
5011;DHT22;2524;54.364;10.072;2023-03-01T05:24:24;1.90;99.90
5011;DHT22;2524;54.364;10.072;2023-03-01T05:26:50;1.80;99.90
5011;DHT22;2524;54.364;10.072;2023-03-01T05:29:21;1.80;99.90
5011;DHT22;2524;54.364;10.072;2023-03-01T05:31:52;1.80;99.90
5011;DHT22;2524;54.364;10.072;2023-03-01T05:34:19;1.80;99.90
5011;DHT22;2524;54.364;10.072;2023-03-01T05:36:48;1.80;99.90
5011;DHT22;2524;54.364;10.072;2023-03-01T05:39:13;1.70;99.90
5011;DHT22;2524;54.364;10.072;2023-03-01T05:41:39;1.80;99.90
5011;DHT22;2524;54.364;10.072;2023-03-01T05:44:06;1.70;99.90
5011;DHT22;2524;54.364;10.072;2023-03-01T05:46:32;1.80;99.90
5011;DHT22;2524;54.364;10.072;2023-03-01T05:48:57;1.70;99.90
5011;DHT22;2524;54.364;10.072;2023-03-01T05:51:23;1.70;99.90
5011;DHT22;2524;54.364;10.072;2023-03-01T05:53:48;1.70;99.90
5011;DHT22;2524;54.364;10.072;2023-03-01T05:56:14;1.70;99.90
5011;DHT22;2524;54.364;10.072;2023-03-01T05:58:40;1.70;99.90
5011;DHT22;2524;54.364;10.072;2023-03-01T06:01:05;1.70;99.90
5011;DHT22;2524;54.364;10.072;2023-03-01T06:03:31;1.70;99.90
5011;DHT22;2524;54.364;10.072;2023-03-01T06:05:57;1.70;99.90
5011;DHT22;2524;54.364;10.072;2023-03-01T06:08:23;1.70;99.90
5011;DHT22;2524;54.364;10.072;2023-03-01T06:10:52;1.80;99.90
5011;DHT22;2524;54.364;10.072;2023-03-01T06:13:17;1.80;99.90
5011;DHT22;2524;54.364;10.072;2023-03-01T06:15:43;1.80;99.90
5011;DHT22;2524;54.364;10.072;2023-03-01T06:18:08;1.80;99.90
5011;DHT22;2524;54.364;10.072;2023-03-01T06:20:34;1.80;99.90
5011;DHT22;2524;54.364;10.072;2023-03-01T06:23:00;1.80;99.90
5011;DHT22;2524;54.364;10.072;2023-03-01T06:25:27;1.80;99.90
5011;DHT22;2524;54.364;10.072;2023-03-01T06:27:53;1.90;99.90
5011;DHT22;2524;54.364;10.072;2023-03-01T06:30:20;1.90;99.90
5011;DHT22;2524;54.364;10.072;2023-03-01T06:32:46;1.80;99.90
5011;DHT22;2524;54.364;10.072;2023-03-01T06:35:14;1.80;99.90
5011;DHT22;2524;54.364;10.072;2023-03-01T06:37:42;1.80;99.90
5011;DHT22;2524;54.364;10.072;2023-03-01T06:40:09;1.80;99.90
5011;DHT22;2524;54.364;10.072;2023-03-01T06:42:38;1.80;99.90
5011;DHT22;2524;54.364;10.072;2023-03-01T06:45:06;1.70;99.90
5011;DHT22;2524;54.364;10.072;2023-03-01T06:47:32;1.70;99.90
5011;DHT22;2524;54.364;10.072;2023-03-01T06:50:02;1.60;99.90
5011;DHT22;2524;54.364;10.072;2023-03-01T06:52:28;1.50;99.90
5011;DHT22;2524;54.364;10.072;2023-03-01T06:54:53;1.50;99.90
5011;DHT22;2524;54.364;10.072;2023-03-01T06:57:19;1.50;99.90
5011;DHT22;2524;54.364;10.072;2023-03-01T06:59:46;1.50;99.90
5011;DHT22;2524;54.364;10.072;2023-03-01T07:02:13;1.60;99.90
5011;DHT22;2524;54.364;10.072;2023-03-01T07:04:40;1.60;99.90
5011;DHT22;2524;54.364;10.072;2023-03-01T07:07:06;1.60;99.90
5011;DHT22;2524;54.364;10.072;2023-03-01T07:09:31;1.60;99.90
5011;DHT22;2524;54.364;10.072;2023-03-01T07:11:57;1.60;99.90
5011;DHT22;2524;54.364;10.072;2023-03-01T07:14:24;1.60;99.90
5011;DHT22;2524;54.364;10.072;2023-03-01T07:16:51;1.60;99.90
5011;DHT22;2524;54.364;10.072;2023-03-01T07:19:17;1.70;99.90
5011;DHT22;2524;54.364;10.072;2023-03-01T07:21:43;1.70;99.90
5011;DHT22;2524;54.364;10.072;2023-03-01T07:24:08;1.70;99.90
5011;DHT22;2524;54.364;10.072;2023-03-01T07:26:34;1.60;99.90
5011;DHT22;2524;54.364;10.072;2023-03-01T07:29:01;1.60;99.90
5011;DHT22;2524;54.364;10.072;2023-03-01T07:31:27;1.60;99.90
5011;DHT22;2524;54.364;10.072;2023-03-01T07:33:55;1.70;99.90
5011;DHT22;2524;54.364;10.072;2023-03-01T07:36:21;1.70;99.90
5011;DHT22;2524;54.364;10.072;2023-03-01T07:38:47;1.70;99.90
5011;DHT22;2524;54.364;10.072;2023-03-01T07:41:13;1.70;99.90
5011;DHT22;2524;54.364;10.072;2023-03-01T07:43:39;1.70;99.90
5011;DHT22;2524;54.364;10.072;2023-03-01T07:46:05;1.70;99.90
5011;DHT22;2524;54.364;10.072;2023-03-01T07:48:32;1.70;99.90
5011;DHT22;2524;54.364;10.072;2023-03-01T07:50:59;1.80;99.90
5011;DHT22;2524;54.364;10.072;2023-03-01T07:53:25;1.80;99.90
5011;DHT22;2524;54.364;10.072;2023-03-01T07:56:00;1.80;99.90
5011;DHT22;2524;54.364;10.072;2023-03-01T07:58:26;1.80;99.90
5011;DHT22;2524;54.364;10.072;2023-03-01T08:00:51;1.80;99.90
5011;DHT22;2524;54.364;10.072;2023-03-01T08:03:17;1.80;99.90
5011;DHT22;2524;54.364;10.072;2023-03-01T08:05:42;1.80;99.90
5011;DHT22;2524;54.364;10.072;2023-03-01T08:08:08;1.80;99.90
5011;DHT22;2524;54.364;10.072;2023-03-01T08:10:33;1.90;99.90
5011;DHT22;2524;54.364;10.072;2023-03-01T08:12:59;1.90;99.90
5011;DHT22;2524;54.364;10.072;2023-03-01T08:15:24;1.90;99.90
5011;DHT22;2524;54.364;10.072;2023-03-01T08:17:50;1.80;99.90
5011;DHT22;2524;54.364;10.072;2023-03-01T08:20:16;1.80;99.90
5011;DHT22;2524;54.364;10.072;2023-03-01T08:22:42;1.80;99.90
5011;DHT22;2524;54.364;10.072;2023-03-01T08:25:08;1.80;99.90
5011;DHT22;2524;54.364;10.072;2023-03-01T08:27:33;1.80;99.90
5011;DHT22;2524;54.364;10.072;2023-03-01T08:29:59;1.80;99.90
5011;DHT22;2524;54.364;10.072;2023-03-01T08:32:24;1.80;99.90
5011;DHT22;2524;54.364;10.072;2023-03-01T08:34:50;1.80;99.90
5011;DHT22;2524;54.364;10.072;2023-03-01T08:37:15;1.90;99.90
5011;DHT22;2524;54.364;10.072;2023-03-01T08:39:41;1.90;99.90
5011;DHT22;2524;54.364;10.072;2023-03-01T08:42:07;1.90;99.90
5011;DHT22;2524;54.364;10.072;2023-03-01T08:44:32;1.90;99.90
5011;DHT22;2524;54.364;10.072;2023-03-01T08:46:59;1.90;99.90
5011;DHT22;2524;54.364;10.072;2023-03-01T08:49:25;1.80;99.90
5011;DHT22;2524;54.364;10.072;2023-03-01T08:51:50;1.80;99.90
5011;DHT22;2524;54.364;10.072;2023-03-01T08:54:20;1.70;99.90
5011;DHT22;2524;54.364;10.072;2023-03-01T08:56:46;1.80;99.90
5011;DHT22;2524;54.364;10.072;2023-03-01T08:59:12;1.70;99.90
5011;DHT22;2524;54.364;10.072;2023-03-01T09:01:38;1.80;99.90
5011;DHT22;2524;54.364;10.072;2023-03-01T09:04:05;1.80;99.90
5011;DHT22;2524;54.364;10.072;2023-03-01T09:06:32;1.80;99.90
5011;DHT22;2524;54.364;10.072;2023-03-01T09:08:58;1.80;99.90
5011;DHT22;2524;54.364;10.072;2023-03-01T09:11:24;1.80;99.90
5011;DHT22;2524;54.364;10.072;2023-03-01T09:13:50;1.90;99.90
5011;DHT22;2524;54.364;10.072;2023-03-01T09:16:19;1.90;99.90
5011;DHT22;2524;54.364;10.072;2023-03-01T09:18:47;1.90;99.90
5011;DHT22;2524;54.364;10.072;2023-03-01T09:21:15;2.00;99.90
5011;DHT22;2524;54.364;10.072;2023-03-01T09:23:44;2.00;99.90
5011;DHT22;2524;54.364;10.072;2023-03-01T09:26:20;2.00;99.90
5011;DHT22;2524;54.364;10.072;2023-03-01T09:28:48;2.00;99.90
5011;DHT22;2524;54.364;10.072;2023-03-01T09:31:16;2.00;99.90
5011;DHT22;2524;54.364;10.072;2023-03-01T09:33:42;1.90;99.90
5011;DHT22;2524;54.364;10.072;2023-03-01T09:36:12;2.00;99.90
5011;DHT22;2524;54.364;10.072;2023-03-01T09:38:38;2.00;99.90
5011;DHT22;2524;54.364;10.072;2023-03-01T09:43:48;2.00;99.90
5011;DHT22;2524;54.364;10.072;2023-03-01T09:46:20;2.00;99.90
5011;DHT22;2524;54.364;10.072;2023-03-01T09:49:01;2.00;99.90
5011;DHT22;2524;54.364;10.072;2023-03-01T09:51:30;2.00;99.90
5011;DHT22;2524;54.364;10.072;2023-03-01T09:53:57;2.00;99.90
5011;DHT22;2524;54.364;10.072;2023-03-01T09:56:30;2.10;99.90
5011;DHT22;2524;54.364;10.072;2023-03-01T10:04:47;2.10;99.90
5011;DHT22;2524;54.364;10.072;2023-03-01T10:07:17;2.10;99.90
5011;DHT22;2524;54.364;10.072;2023-03-01T10:09:47;2.10;99.90
5011;DHT22;2524;54.364;10.072;2023-03-01T10:12:40;2.10;99.90
5011;DHT22;2524;54.364;10.072;2023-03-01T10:15:15;2.10;99.90
5011;DHT22;2524;54.364;10.072;2023-03-01T10:17:46;2.10;99.90
5011;DHT22;2524;54.364;10.072;2023-03-01T10:20:26;2.20;99.90
5011;DHT22;2524;54.364;10.072;2023-03-01T10:22:52;2.20;99.90
5011;DHT22;2524;54.364;10.072;2023-03-01T10:25:47;2.20;99.90
5011;DHT22;2524;54.364;10.072;2023-03-01T10:29:01;2.30;99.90
5011;DHT22;2524;54.364;10.072;2023-03-01T10:31:44;2.30;99.90
5011;DHT22;2524;54.364;10.072;2023-03-01T10:34:14;2.30;99.90
5011;DHT22;2524;54.364;10.072;2023-03-01T10:36:40;2.30;99.90
5011;DHT22;2524;54.364;10.072;2023-03-01T10:39:19;2.30;99.90
5011;DHT22;2524;54.364;10.072;2023-03-01T10:44:45;2.30;99.90
5011;DHT22;2524;54.364;10.072;2023-03-01T10:50:03;2.30;99.90
5011;DHT22;2524;54.364;10.072;2023-03-01T10:52:36;2.40;99.90
5011;DHT22;2524;54.364;10.072;2023-03-01T10:55:23;2.40;99.90
5011;DHT22;2524;54.364;10.072;2023-03-01T10:57:50;2.40;99.90
5011;DHT22;2524;54.364;10.072;2023-03-01T11:00:25;2.40;99.90
5011;DHT22;2524;54.364;10.072;2023-03-01T11:05:25;2.50;99.90
5011;DHT22;2524;54.364;10.072;2023-03-01T11:07:55;2.50;99.90
5011;DHT22;2524;54.364;10.072;2023-03-01T11:10:35;2.50;99.90
5011;DHT22;2524;54.364;10.072;2023-03-01T11:13:18;2.60;99.90
5011;DHT22;2524;54.364;10.072;2023-03-01T11:16:03;2.60;99.90
5011;DHT22;2524;54.364;10.072;2023-03-01T11:18:30;2.60;99.90
5011;DHT22;2524;54.364;10.072;2023-03-01T11:20:58;2.60;99.90
5011;DHT22;2524;54.364;10.072;2023-03-01T11:23:25;2.60;99.90
5011;DHT22;2524;54.364;10.072;2023-03-01T11:25:59;2.60;99.90
5011;DHT22;2524;54.364;10.072;2023-03-01T11:28:27;2.60;99.90
5011;DHT22;2524;54.364;10.072;2023-03-01T11:31:06;2.70;99.90
5011;DHT22;2524;54.364;10.072;2023-03-01T11:36:12;2.70;99.90
5011;DHT22;2524;54.364;10.072;2023-03-01T11:38:38;2.70;99.90
5011;DHT22;2524;54.364;10.072;2023-03-01T11:41:13;2.70;99.90
5011;DHT22;2524;54.364;10.072;2023-03-01T11:43:56;2.70;99.90
5011;DHT22;2524;54.364;10.072;2023-03-01T11:46:29;2.70;99.90
5011;DHT22;2524;54.364;10.072;2023-03-01T11:51:59;2.70;99.90
5011;DHT22;2524;54.364;10.072;2023-03-01T12:03:28;2.90;99.90
5011;DHT22;2524;54.364;10.072;2023-03-01T12:14:09;2.90;99.90
5011;DHT22;2524;54.364;10.072;2023-03-01T12:22:31;3.00;99.90
5011;DHT22;2524;54.364;10.072;2023-03-01T12:30:27;2.90;99.90
5011;DHT22;2524;54.364;10.072;2023-03-01T12:38:41;3.00;99.90
5011;DHT22;2524;54.364;10.072;2023-03-01T12:41:26;3.00;99.90
5011;DHT22;2524;54.364;10.072;2023-03-01T12:49:33;3.10;99.90
5011;DHT22;2524;54.364;10.072;2023-03-01T12:52:09;3.10;99.90
5011;DHT22;2524;54.364;10.072;2023-03-01T12:54:36;3.10;99.90
5011;DHT22;2524;54.364;10.072;2023-03-01T12:57:21;3.00;99.90
5011;DHT22;2524;54.364;10.072;2023-03-01T13:02:56;3.00;99.90
5011;DHT22;2524;54.364;10.072;2023-03-01T13:06:11;3.00;99.90
5011;DHT22;2524;54.364;10.072;2023-03-01T13:08:36;3.10;99.90
5011;DHT22;2524;54.364;10.072;2023-03-01T13:11:06;3.10;99.90
5011;DHT22;2524;54.364;10.072;2023-03-01T13:13:37;3.10;99.90
5011;DHT22;2524;54.364;10.072;2023-03-01T13:21:40;3.00;99.90
5011;DHT22;2524;54.364;10.072;2023-03-01T13:24:38;3.00;99.90
5011;DHT22;2524;54.364;10.072;2023-03-01T13:29:49;3.00;99.90
5011;DHT22;2524;54.364;10.072;2023-03-01T13:32:24;3.00;99.90
5011;DHT22;2524;54.364;10.072;2023-03-01T13:34:59;3.00;99.90
5011;DHT22;2524;54.364;10.072;2023-03-01T13:37:30;3.00;99.90
5011;DHT22;2524;54.364;10.072;2023-03-01T13:39:58;3.00;99.90
5011;DHT22;2524;54.364;10.072;2023-03-01T13:42:44;3.00;99.90
5011;DHT22;2524;54.364;10.072;2023-03-01T13:48:16;3.00;99.90
5011;DHT22;2524;54.364;10.072;2023-03-01T13:50:51;3.00;99.90
5011;DHT22;2524;54.364;10.072;2023-03-01T13:53:20;3.10;99.90
5011;DHT22;2524;54.364;10.072;2023-03-01T13:56:00;3.10;99.90
5011;DHT22;2524;54.364;10.072;2023-03-01T13:58:30;3.10;99.90
5011;DHT22;2524;54.364;10.072;2023-03-01T14:01:00;3.10;99.90
5011;DHT22;2524;54.364;10.072;2023-03-01T14:03:27;3.10;99.90
5011;DHT22;2524;54.364;10.072;2023-03-01T14:06:06;3.10;99.90
5011;DHT22;2524;54.364;10.072;2023-03-01T14:08:33;3.00;99.90
5011;DHT22;2524;54.364;10.072;2023-03-01T14:19:20;3.00;99.90
5011;DHT22;2524;54.364;10.072;2023-03-01T14:21:59;3.10;99.90
5011;DHT22;2524;54.364;10.072;2023-03-01T14:24:27;3.10;99.90
5011;DHT22;2524;54.364;10.072;2023-03-01T14:26:53;3.10;99.90
5011;DHT22;2524;54.364;10.072;2023-03-01T14:29:36;3.10;99.90
5011;DHT22;2524;54.364;10.072;2023-03-01T14:32:20;3.10;99.90
5011;DHT22;2524;54.364;10.072;2023-03-01T14:34:48;3.10;99.90
5011;DHT22;2524;54.364;10.072;2023-03-01T14:37:20;3.10;99.90
5011;DHT22;2524;54.364;10.072;2023-03-01T14:39:46;3.10;99.90
5011;DHT22;2524;54.364;10.072;2023-03-01T14:42:13;3.10;99.90
5011;DHT22;2524;54.364;10.072;2023-03-01T14:44:43;3.10;99.90
5011;DHT22;2524;54.364;10.072;2023-03-01T14:47:16;3.00;99.90
5011;DHT22;2524;54.364;10.072;2023-03-01T14:49:45;3.10;99.90
5011;DHT22;2524;54.364;10.072;2023-03-01T14:52:29;3.00;99.90
5011;DHT22;2524;54.364;10.072;2023-03-01T14:54:57;3.00;99.90
5011;DHT22;2524;54.364;10.072;2023-03-01T14:57:25;3.10;99.90
5011;DHT22;2524;54.364;10.072;2023-03-01T14:59:53;3.10;99.90
5011;DHT22;2524;54.364;10.072;2023-03-01T15:02:22;3.00;99.90
5011;DHT22;2524;54.364;10.072;2023-03-01T15:04:52;3.10;99.90
5011;DHT22;2524;54.364;10.072;2023-03-01T15:07:18;3.10;99.90
5011;DHT22;2524;54.364;10.072;2023-03-01T15:09:45;3.10;99.90
5011;DHT22;2524;54.364;10.072;2023-03-01T15:14:58;3.10;99.90
5011;DHT22;2524;54.364;10.072;2023-03-01T15:17:33;3.10;99.90
5011;DHT22;2524;54.364;10.072;2023-03-01T15:20:04;3.20;99.90
5011;DHT22;2524;54.364;10.072;2023-03-01T15:22:31;3.20;99.90
5011;DHT22;2524;54.364;10.072;2023-03-01T15:24:57;3.20;99.90
5011;DHT22;2524;54.364;10.072;2023-03-01T15:27:24;3.20;99.90
5011;DHT22;2524;54.364;10.072;2023-03-01T15:29:55;3.20;99.90
5011;DHT22;2524;54.364;10.072;2023-03-01T15:32:30;3.20;99.90
5011;DHT22;2524;54.364;10.072;2023-03-01T15:34:58;3.20;99.90
5011;DHT22;2524;54.364;10.072;2023-03-01T15:37:47;3.20;99.90
5011;DHT22;2524;54.364;10.072;2023-03-01T15:40:23;3.20;99.90
5011;DHT22;2524;54.364;10.072;2023-03-01T15:43:03;3.20;99.90
5011;DHT22;2524;54.364;10.072;2023-03-01T15:45:31;3.20;99.90
5011;DHT22;2524;54.364;10.072;2023-03-01T15:48:02;3.20;99.90
5011;DHT22;2524;54.364;10.072;2023-03-01T15:50:32;3.20;99.90
5011;DHT22;2524;54.364;10.072;2023-03-01T15:52:59;3.30;99.90
5011;DHT22;2524;54.364;10.072;2023-03-01T15:55:28;3.20;99.90
5011;DHT22;2524;54.364;10.072;2023-03-01T15:58:13;3.20;99.90
5011;DHT22;2524;54.364;10.072;2023-03-01T16:00:41;3.20;99.90
5011;DHT22;2524;54.364;10.072;2023-03-01T16:03:09;3.30;99.90
5011;DHT22;2524;54.364;10.072;2023-03-01T16:05:37;3.20;99.90
5011;DHT22;2524;54.364;10.072;2023-03-01T16:08:05;3.20;99.90
5011;DHT22;2524;54.364;10.072;2023-03-01T16:10:32;3.20;99.90
5011;DHT22;2524;54.364;10.072;2023-03-01T16:12:59;3.20;99.90
5011;DHT22;2524;54.364;10.072;2023-03-01T16:15:29;3.20;99.90
5011;DHT22;2524;54.364;10.072;2023-03-01T16:17:55;3.30;99.90
5011;DHT22;2524;54.364;10.072;2023-03-01T16:20:22;3.20;99.90
5011;DHT22;2524;54.364;10.072;2023-03-01T16:22:48;3.20;99.90
5011;DHT22;2524;54.364;10.072;2023-03-01T16:25:16;3.30;99.90
5011;DHT22;2524;54.364;10.072;2023-03-01T16:27:47;3.20;99.90
5011;DHT22;2524;54.364;10.072;2023-03-01T16:30:15;3.30;99.90
5011;DHT22;2524;54.364;10.072;2023-03-01T16:32:43;3.30;99.90
5011;DHT22;2524;54.364;10.072;2023-03-01T16:35:10;3.30;99.90
5011;DHT22;2524;54.364;10.072;2023-03-01T16:37:37;3.30;99.90
5011;DHT22;2524;54.364;10.072;2023-03-01T16:40:05;3.30;99.90
5011;DHT22;2524;54.364;10.072;2023-03-01T16:42:35;3.30;99.90
5011;DHT22;2524;54.364;10.072;2023-03-01T16:45:26;3.30;99.90
5011;DHT22;2524;54.364;10.072;2023-03-01T16:48:24;3.30;99.90
5011;DHT22;2524;54.364;10.072;2023-03-01T16:50:58;3.20;99.90
5011;DHT22;2524;54.364;10.072;2023-03-01T16:53:24;3.30;99.90
5011;DHT22;2524;54.364;10.072;2023-03-01T16:55:54;3.30;99.90
5011;DHT22;2524;54.364;10.072;2023-03-01T16:58:21;3.30;99.90
5011;DHT22;2524;54.364;10.072;2023-03-01T17:00:54;3.30;99.90
5011;DHT22;2524;54.364;10.072;2023-03-01T17:03:25;3.30;99.90
5011;DHT22;2524;54.364;10.072;2023-03-01T17:05:51;3.30;99.90
5011;DHT22;2524;54.364;10.072;2023-03-01T17:08:17;3.30;99.90
5011;DHT22;2524;54.364;10.072;2023-03-01T17:10:42;3.30;99.90
5011;DHT22;2524;54.364;10.072;2023-03-01T17:13:09;3.40;99.90
5011;DHT22;2524;54.364;10.072;2023-03-01T17:15:38;3.30;99.90
5011;DHT22;2524;54.364;10.072;2023-03-01T17:18:04;3.30;99.90
5011;DHT22;2524;54.364;10.072;2023-03-01T17:20:30;3.20;99.90
5011;DHT22;2524;54.364;10.072;2023-03-01T17:22:57;3.20;99.90
5011;DHT22;2524;54.364;10.072;2023-03-01T17:25:23;3.30;99.90
5011;DHT22;2524;54.364;10.072;2023-03-01T17:27:48;3.20;99.90
5011;DHT22;2524;54.364;10.072;2023-03-01T17:30:14;3.30;99.90
5011;DHT22;2524;54.364;10.072;2023-03-01T17:32:41;3.30;99.90
5011;DHT22;2524;54.364;10.072;2023-03-01T17:35:07;3.20;99.90
5011;DHT22;2524;54.364;10.072;2023-03-01T17:37:33;3.20;99.90
5011;DHT22;2524;54.364;10.072;2023-03-01T17:39:58;3.20;99.90
5011;DHT22;2524;54.364;10.072;2023-03-01T17:42:24;3.30;99.90
5011;DHT22;2524;54.364;10.072;2023-03-01T17:44:49;3.30;99.90
5011;DHT22;2524;54.364;10.072;2023-03-01T17:47:15;3.30;99.90
5011;DHT22;2524;54.364;10.072;2023-03-01T17:49:41;3.30;99.90
5011;DHT22;2524;54.364;10.072;2023-03-01T17:52:06;3.30;99.90
5011;DHT22;2524;54.364;10.072;2023-03-01T17:54:32;3.30;99.90
5011;DHT22;2524;54.364;10.072;2023-03-01T17:56:58;3.30;99.90